createdAt,value
2022-08-26T03:56:19.995Z,71.93
2022-08-26T03:57:19.985Z,71.93
2022-08-26T03:58:19.975Z,71.60
2022-08-26T03:59:19.964Z,71.49
2022-08-26T04:04:22.793Z,70.22
2022-08-26T04:05:19.900Z,70.32
2022-08-26T04:06:19.889Z,70.02
2022-08-26T04:09:19.858Z,69.92
2022-08-26T04:11:19.841Z,70.22
2022-08-26T04:12:19.830Z,70.22
2022-08-26T04:13:19.819Z,70.22
2022-08-26T04:14:20.224Z,70.36
2022-08-26T04:15:19.796Z,70.52
2022-08-26T04:16:19.865Z,70.52
2022-08-26T04:17:19.778Z,70.66
2022-08-26T04:18:19.771Z,70.66
2022-08-26T04:19:19.758Z,70.56
2022-08-26T04:20:19.748Z,70.52
2022-08-26T04:21:19.734Z,70.56
2022-08-26T04:22:24.825Z,70.42
2022-08-26T04:23:19.714Z,70.52
2022-08-26T04:24:19.705Z,70.42
2022-08-26T04:25:20.509Z,70.32
2022-08-26T04:26:19.686Z,70.66
2022-08-26T04:27:19.671Z,70.95
2022-08-26T04:28:19.663Z,71.56
2022-08-26T04:29:19.651Z,71.89
2022-08-26T04:30:19.639Z,72.30
2022-08-26T04:31:19.683Z,72.33
2022-08-26T04:32:19.620Z,72.50
2022-08-26T04:33:19.611Z,72.86
2022-08-26T04:34:20.622Z,73.04
2022-08-26T04:35:25.465Z,73.24
2022-08-26T04:36:20.600Z,73.43
2022-08-26T04:37:19.567Z,73.63
2022-08-26T04:38:19.557Z,73.74
2022-08-26T04:39:19.546Z,74.04
2022-08-26T04:40:19.602Z,74.17
2022-08-26T04:41:19.527Z,74.34
2022-08-26T04:42:25.998Z,74.57
2022-08-26T04:43:20.529Z,74.68
2022-08-26T04:44:19.496Z,74.48
2022-08-26T04:45:22.642Z,73.47
2022-08-26T04:46:19.517Z,73.13
2022-08-26T04:47:19.465Z,72.43
2022-08-26T04:48:19.450Z,72.19
2022-08-26T04:49:19.441Z,72.10
2022-08-26T04:50:19.430Z,71.99
2022-08-26T04:51:19.424Z,71.99
2022-08-26T04:52:19.412Z,72.30
2022-08-26T04:53:19.400Z,72.39
2022-08-26T04:54:19.392Z,72.80
2022-08-26T04:55:19.382Z,73.00
2022-08-26T04:56:19.369Z,72.86
2022-08-26T04:57:19.361Z,72.90
2022-08-26T04:58:19.349Z,72.30
2022-08-26T04:59:19.338Z,72.39
2022-08-26T05:00:19.328Z,72.26
2022-08-26T05:01:19.357Z,72.30
2022-08-26T05:02:19.312Z,72.39
2022-08-26T05:03:19.298Z,72.26
2022-08-26T05:04:19.387Z,72.36
2022-08-26T05:05:19.276Z,72.19
2022-08-26T05:06:19.266Z,72.36
2022-08-26T05:07:19.256Z,72.46
2022-08-26T05:08:19.249Z,72.19
2022-08-26T05:09:19.238Z,72.30
2022-08-26T05:10:19.224Z,72.26
2022-08-26T05:11:19.214Z,72.16
2022-08-26T05:12:19.203Z,72.26
2022-08-26T05:13:19.195Z,72.06
2022-08-26T05:14:19.183Z,72.06
2022-08-26T05:15:19.176Z,72.06
2022-08-26T05:16:19.208Z,72.16
2022-08-26T05:17:19.151Z,72.13
2022-08-26T05:18:20.023Z,72.23
2022-08-26T05:19:19.590Z,72.23
2022-08-26T05:20:22.712Z,72.23
2022-08-26T05:21:19.111Z,72.63
2022-08-26T05:22:19.096Z,72.23
2022-08-26T05:23:19.090Z,72.13
2022-08-26T05:24:19.077Z,72.03
2022-08-26T05:25:19.069Z,72.23
2022-08-26T05:26:23.075Z,71.83
2022-08-26T05:27:19.047Z,72.63
2022-08-26T05:28:19.040Z,73.23
2022-08-26T05:29:19.026Z,73.40
2022-08-26T05:30:19.014Z,73.53
2022-08-26T05:31:19.092Z,73.33
2022-08-26T05:32:18.992Z,73.30
2022-08-26T05:33:18.984Z,73.33
2022-08-26T05:34:18.974Z,72.99
2022-08-26T05:35:18.963Z,72.69
2022-08-26T05:36:18.952Z,72.39
2022-08-26T05:37:18.940Z,72.29
2022-08-26T05:38:18.929Z,72.09
2022-08-26T05:39:18.923Z,72.49
2022-08-26T05:40:19.013Z,73.03
2022-08-26T05:41:18.899Z,73.40
2022-08-26T05:42:18.889Z,72.63
2022-08-26T05:43:18.879Z,72.53
2022-08-26T05:44:18.876Z,72.63
2022-08-26T05:45:18.858Z,72.60
2022-08-26T05:46:18.926Z,72.43
2022-08-26T05:47:18.836Z,72.23
2022-08-26T05:48:18.826Z,72.33
2022-08-26T05:49:18.816Z,72.60
2022-08-26T05:50:18.808Z,72.83
2022-08-26T05:51:20.887Z,72.63
2022-08-26T05:52:18.785Z,72.73
2022-08-26T05:53:18.776Z,73.33
2022-08-26T05:54:21.895Z,72.83
2022-08-26T05:55:18.752Z,72.83
2022-08-26T05:56:18.743Z,72.83
2022-08-26T05:57:18.733Z,72.90
2022-08-26T05:58:18.729Z,73.13
2022-08-26T05:59:23.942Z,73.53
2022-08-26T06:00:19.727Z,74.03
2022-08-26T06:01:18.730Z,74.17
2022-08-26T06:02:18.726Z,74.23
2022-08-26T06:03:18.745Z,74.57
2022-08-26T06:04:18.662Z,74.57
2022-08-26T06:05:18.651Z,74.67
2022-08-26T06:06:20.200Z,74.73
2022-08-26T06:07:19.658Z,74.67
2022-08-26T06:08:19.402Z,74.63
2022-08-26T06:09:18.614Z,74.27
2022-08-26T06:10:32.087Z,74.23
2022-08-26T06:11:19.614Z,74.13
2022-08-26T06:12:18.607Z,73.80
2022-08-26T06:13:18.568Z,73.49
2022-08-26T06:14:18.559Z,73.30
2022-08-26T06:15:18.551Z,73.06
2022-08-26T06:16:18.613Z,72.46
2022-08-26T06:17:18.529Z,71.76
2022-08-26T06:18:18.521Z,71.96
2022-08-26T06:19:18.511Z,72.06
2022-08-26T06:20:18.502Z,71.92
2022-08-26T06:21:18.489Z,71.82
2022-08-26T06:22:23.315Z,72.06
2022-08-26T06:23:18.470Z,71.72
2022-08-26T06:24:18.462Z,72.22
2022-08-26T06:25:18.451Z,72.13
2022-08-26T06:26:18.440Z,72.02
2022-08-26T06:27:18.431Z,72.13
2022-08-26T06:28:18.418Z,71.89
2022-08-26T06:29:24.481Z,71.79
2022-08-26T06:30:19.422Z,71.63
2022-08-26T06:31:18.467Z,71.29
2022-08-26T06:32:18.380Z,71.09
2022-08-26T06:33:18.368Z,70.59
2022-08-26T06:34:18.369Z,70.15
2022-08-26T06:35:18.348Z,70.25
2022-08-26T06:36:18.702Z,70.36
2022-08-26T06:37:18.329Z,70.02
2022-08-26T06:38:18.319Z,70.36
2022-08-26T06:39:18.308Z,70.36
2022-08-26T06:40:18.346Z,70.62
2022-08-26T06:41:18.284Z,70.55
2022-08-26T06:42:18.275Z,70.36
2022-08-26T06:43:18.269Z,70.25
2022-08-26T06:44:18.252Z,70.25
2022-08-26T06:45:18.242Z,70.25
2022-08-26T06:46:18.265Z,70.82
2022-08-26T06:47:18.220Z,70.62
2022-08-26T06:48:18.216Z,70.42
2022-08-26T06:49:18.205Z,69.72
2022-08-26T06:50:19.210Z,69.82
2022-08-26T06:51:18.179Z,69.59
2022-08-26T06:52:22.965Z,68.76
2022-08-26T06:53:18.154Z,68.52
2022-08-26T06:54:18.145Z,68.32
2022-08-26T06:55:18.136Z,68.12
2022-08-26T06:56:18.126Z,67.52
2022-08-26T06:57:18.118Z,67.39
2022-08-26T06:58:18.106Z,67.42
2022-08-26T06:59:18.093Z,67.69
2022-08-26T07:00:18.083Z,67.92
2022-08-26T07:01:18.229Z,67.92
2022-08-26T07:02:18.188Z,67.62
2022-08-26T07:03:18.155Z,67.62
2022-08-26T07:04:20.263Z,67.26
2022-08-26T07:05:18.032Z,66.66
2022-08-26T07:06:18.022Z,66.33
2022-08-26T07:07:18.015Z,66.23
2022-08-26T07:08:18.002Z,65.70
2022-08-26T07:09:17.991Z,65.30
2022-08-26T07:10:17.983Z,65.40
2022-08-26T07:11:17.975Z,65.00
2022-08-26T07:12:17.961Z,64.74
2022-08-26T07:13:17.948Z,63.64
2022-08-26T07:14:19.308Z,64.17
2022-08-26T07:15:17.933Z,63.75
2022-08-26T07:16:19.075Z,64.07
2022-08-26T07:17:17.913Z,65.00
2022-08-26T07:18:17.899Z,64.30
2022-08-26T07:19:17.888Z,63.67
2022-08-26T07:20:18.900Z,63.28
2022-08-26T07:21:18.217Z,63.25
2022-08-26T07:22:17.860Z,62.62
2022-08-26T07:23:17.850Z,62.39
2022-08-26T07:24:17.841Z,61.69
2022-08-26T07:25:17.835Z,61.39
2022-08-26T07:26:17.816Z,62.09
2022-08-26T07:27:17.809Z,61.49
2022-08-26T07:28:17.799Z,61.72
2022-08-26T07:29:17.789Z,62.85
2022-08-26T07:30:17.777Z,63.07
2022-08-26T07:31:17.878Z,63.58
2022-08-26T07:32:17.761Z,63.81
2022-08-26T07:33:17.749Z,63.58
2022-08-26T07:34:17.738Z,63.53
2022-08-26T07:35:17.727Z,63.58
2022-08-26T07:36:17.716Z,63.07
2022-08-26T07:37:17.748Z,63.07
2022-08-26T07:38:17.698Z,63.18
2022-08-26T07:39:17.683Z,63.18
2022-08-26T07:40:17.753Z,63.18
2022-08-26T07:41:17.683Z,62.65
2022-08-26T07:42:18.436Z,61.72
2022-08-26T07:43:17.642Z,61.10
2022-08-26T07:44:17.651Z,60.50
2022-08-26T07:45:17.624Z,59.77
2022-08-26T07:46:17.614Z,59.68
2022-08-26T07:47:24.687Z,60.07
2022-08-26T07:48:18.620Z,59.38
2022-08-26T07:49:17.625Z,59.44
2022-08-26T07:50:17.572Z,59.64
2022-08-26T07:51:17.565Z,58.82
2022-08-26T07:52:17.563Z,57.80
2022-08-26T07:53:19.407Z,58.03
2022-08-26T07:54:17.532Z,59.14
2022-08-26T07:55:17.526Z,58.95
2022-08-26T07:56:17.511Z,59.17
2022-08-26T07:57:17.500Z,59.27
2022-08-26T07:58:17.493Z,59.77
2022-08-26T07:59:17.486Z,60.07
2022-08-26T08:00:17.472Z,59.94
2022-08-26T08:01:17.519Z,60.44
2022-08-26T08:02:17.450Z,59.99
2022-08-26T08:03:17.443Z,58.17
2022-08-26T08:04:17.443Z,56.62
2022-08-26T08:05:17.480Z,55.71
2022-08-26T08:06:17.415Z,54.86
2022-08-26T08:07:17.401Z,54.59
2022-08-26T08:08:26.665Z,53.97
2022-08-26T08:09:18.472Z,53.94
2022-08-26T08:10:17.372Z,54.04
2022-08-26T08:11:17.361Z,54.46
2022-08-26T08:12:17.357Z,54.79
2022-08-26T08:13:17.344Z,54.69
2022-08-26T08:14:17.332Z,54.37
2022-08-26T08:15:17.322Z,52.96
2022-08-26T08:16:17.490Z,53.55
2022-08-26T08:17:17.306Z,53.27
2022-08-26T08:18:17.294Z,54.79
2022-08-26T08:19:17.286Z,55.63
2022-08-26T08:20:17.278Z,55.81
2022-08-26T08:21:21.794Z,56.60
2022-08-26T08:22:19.917Z,55.51
2022-08-26T08:23:17.245Z,54.56
2022-08-26T08:24:17.249Z,53.15
2022-08-26T08:25:17.222Z,53.45
2022-08-26T08:26:17.219Z,53.03
2022-08-26T08:27:20.196Z,52.53
2022-08-26T08:28:18.213Z,52.70
2022-08-26T08:29:17.181Z,52.83
2022-08-26T08:30:22.648Z,52.31
2022-08-26T08:31:19.091Z,52.08
2022-08-26T08:32:17.155Z,51.27
2022-08-26T08:33:17.146Z,52.38
2022-08-26T08:34:18.208Z,51.59
2022-08-26T08:35:17.126Z,51.39
2022-08-26T08:36:18.573Z,51.30
2022-08-26T08:37:17.108Z,51.56
2022-08-26T08:38:17.099Z,51.04
2022-08-26T08:39:17.092Z,51.37
2022-08-26T08:40:17.149Z,50.95
2022-08-26T08:41:17.075Z,50.38
2022-08-26T08:42:17.060Z,49.74
2022-08-26T08:43:17.051Z,49.00
2022-08-26T08:44:17.079Z,48.19
2022-08-26T08:45:17.031Z,46.27
2022-08-26T08:46:17.054Z,46.56
2022-08-26T08:47:17.013Z,46.45
2022-08-26T08:48:17.002Z,45.66
2022-08-26T08:49:16.994Z,46.08
2022-08-26T08:50:16.984Z,47.82
2022-08-26T08:51:16.971Z,48.73
2022-08-26T08:52:16.964Z,49.74
2022-08-26T08:53:16.953Z,49.79
2022-08-26T08:54:16.946Z,49.93
2022-08-26T08:55:18.226Z,48.95
2022-08-26T08:56:16.925Z,47.65
2022-08-26T08:57:16.916Z,48.06
2022-08-26T08:58:16.906Z,48.06
2022-08-26T08:59:16.976Z,47.55
2022-08-26T09:00:16.888Z,47.10
2022-08-26T09:01:16.897Z,45.95
2022-08-26T09:02:16.989Z,45.05
2022-08-26T09:03:16.861Z,44.06
2022-08-26T09:04:17.187Z,45.03
2022-08-26T09:05:16.843Z,44.97
2022-08-26T09:06:16.831Z,44.97
2022-08-26T09:07:16.826Z,44.28
2022-08-26T09:08:16.815Z,43.55
2022-08-26T09:09:16.852Z,43.51
2022-08-26T09:10:16.902Z,42.38
2022-08-26T09:11:16.784Z,42.21
2022-08-26T09:12:16.775Z,42.91
2022-08-26T09:13:22.465Z,42.44
2022-08-26T09:14:17.780Z,42.65
2022-08-26T09:15:16.747Z,42.33
2022-08-26T09:16:18.947Z,42.74
2022-08-26T09:17:16.731Z,43.47
2022-08-26T09:18:16.718Z,43.77
2022-08-26T09:19:18.816Z,44.38
2022-08-26T09:20:16.706Z,44.38
2022-08-26T09:21:16.696Z,44.26
2022-08-26T09:22:16.755Z,43.26
2022-08-26T09:23:16.679Z,42.33
2022-08-26T09:24:16.667Z,42.48
2022-08-26T09:25:16.658Z,40.09
2022-08-26T09:26:16.650Z,39.15
2022-08-26T09:27:16.641Z,38.47
2022-08-26T09:28:16.631Z,38.43
2022-08-26T09:29:16.713Z,38.84
2022-08-26T09:30:16.665Z,38.33
2022-08-26T09:31:16.680Z,38.37
2022-08-26T09:32:16.596Z,40.13
2022-08-26T09:33:16.639Z,39.89
2022-08-26T09:34:17.260Z,40.56
2022-08-26T09:35:16.568Z,38.84
2022-08-26T09:36:16.559Z,37.55
2022-08-26T09:37:16.571Z,37.67
2022-08-26T09:38:16.889Z,38.95
2022-08-26T09:39:16.530Z,39.78
2022-08-26T09:40:16.731Z,41.11
2022-08-26T09:41:16.512Z,41.94
2022-08-26T09:42:16.785Z,42.15
2022-08-26T09:43:22.175Z,41.60
2022-08-26T09:44:17.505Z,40.46
2022-08-26T09:45:17.043Z,39.34
2022-08-26T09:46:16.596Z,37.94
2022-08-26T09:47:16.563Z,37.30
2022-08-26T09:48:16.612Z,36.50
2022-08-26T09:49:16.443Z,36.38
2022-08-26T09:50:16.456Z,35.90
2022-08-26T09:51:16.423Z,35.80
2022-08-26T09:52:16.431Z,35.80
2022-08-26T09:53:16.409Z,35.90
2022-08-26T09:54:16.395Z,36.27
2022-08-26T09:55:16.761Z,35.88
2022-08-26T09:56:16.378Z,35.74
2022-08-26T09:57:16.373Z,35.15
2022-08-26T09:58:16.362Z,35.18
2022-08-26T09:59:16.353Z,38.12
2022-08-26T10:00:16.390Z,38.66
2022-08-26T10:01:16.421Z,39.05
2022-08-26T10:02:16.327Z,40.50
2022-08-26T10:03:17.436Z,40.99
2022-08-26T10:04:16.339Z,40.80
2022-08-26T10:05:16.297Z,40.89
2022-08-26T10:06:16.293Z,41.30
2022-08-26T10:07:16.288Z,40.11
2022-08-26T10:08:16.271Z,40.60
2022-08-26T10:09:16.262Z,40.27
2022-08-26T10:10:16.316Z,40.25
2022-08-26T10:11:16.347Z,39.93
2022-08-26T10:12:16.239Z,37.73
2022-08-26T10:13:16.242Z,36.17
2022-08-26T10:14:16.218Z,35.05
2022-08-26T10:15:16.211Z,34.22
2022-08-26T10:16:16.261Z,33.28
2022-08-26T10:17:16.202Z,35.02
2022-08-26T10:18:16.186Z,39.13
2022-08-26T10:19:16.177Z,39.58
2022-08-26T10:20:22.782Z,39.76
2022-08-26T10:21:17.958Z,39.31
2022-08-26T10:22:16.151Z,37.43
2022-08-26T10:23:16.152Z,36.81
2022-08-26T10:24:16.137Z,35.78
2022-08-26T10:25:16.147Z,35.26
2022-08-26T10:26:16.165Z,34.28
2022-08-26T10:27:16.162Z,35.43
2022-08-26T10:28:16.104Z,33.53
2022-08-26T10:29:16.139Z,33.29
2022-08-26T10:30:16.136Z,33.03
2022-08-26T10:31:16.079Z,32.03
2022-08-26T10:32:16.143Z,32.42
2022-08-26T10:33:18.053Z,32.77
2022-08-26T10:34:16.056Z,34.95
2022-08-26T10:35:16.049Z,34.35
2022-08-26T10:36:16.040Z,35.10
2022-08-26T10:37:16.745Z,36.35
2022-08-26T10:38:16.022Z,38.58
2022-08-26T10:39:16.013Z,37.96
2022-08-26T10:40:16.146Z,38.04
2022-08-26T10:41:16.939Z,37.35
2022-08-26T10:42:15.985Z,38.49
2022-08-26T10:43:15.978Z,35.98
2022-08-26T10:44:15.969Z,35.54
2022-08-26T10:45:15.962Z,37.01
2022-08-26T10:46:16.069Z,36.94
2022-08-26T10:47:15.944Z,37.45
2022-08-26T10:48:15.935Z,37.48
2022-08-26T10:49:15.923Z,36.82
2022-08-26T10:50:15.915Z,36.11
2022-08-26T10:51:15.906Z,37.06
2022-08-26T10:52:16.514Z,39.28
2022-08-26T10:53:15.889Z,40.36
2022-08-26T10:54:15.880Z,39.15
2022-08-26T10:55:15.873Z,37.51
2022-08-26T10:56:19.228Z,36.14
2022-08-26T10:57:15.854Z,37.45
2022-08-26T10:58:26.422Z,37.92
2022-08-26T10:59:16.860Z,36.52
2022-08-26T11:00:15.879Z,34.88
2022-08-26T11:01:15.884Z,33.65
2022-08-26T11:02:15.810Z,34.19
2022-08-26T11:03:22.629Z,36.03
2022-08-26T11:04:16.900Z,37.45
2022-08-26T11:05:15.783Z,36.63
2022-08-26T11:06:15.781Z,35.99
2022-08-26T11:07:15.763Z,34.88
2022-08-26T11:08:15.758Z,34.87
2022-08-26T11:09:15.748Z,35.60
2022-08-26T11:10:15.736Z,37.98
2022-08-26T11:11:15.727Z,36.09
2022-08-26T11:12:15.722Z,36.19
2022-08-26T11:13:15.762Z,35.88
2022-08-26T11:14:15.707Z,36.71
2022-08-26T11:15:15.698Z,36.92
2022-08-26T11:16:16.084Z,37.51
2022-08-26T11:17:15.685Z,37.63
2022-08-26T11:18:15.727Z,37.23
2022-08-26T11:19:15.666Z,36.21
2022-08-26T11:20:15.657Z,35.29
2022-08-26T11:21:15.656Z,35.49
2022-08-26T11:22:15.645Z,35.29
2022-08-26T11:23:15.631Z,36.42
2022-08-26T11:24:15.723Z,36.74
2022-08-26T11:25:15.621Z,37.92
2022-08-26T11:26:35.519Z,37.71
2022-08-26T11:27:16.627Z,37.23
2022-08-26T11:28:15.593Z,38.15
2022-08-26T11:29:15.623Z,38.04
2022-08-26T11:30:15.577Z,37.75
2022-08-26T11:31:15.606Z,37.13
2022-08-26T11:32:15.657Z,35.82
2022-08-26T11:33:15.551Z,35.90
2022-08-26T11:34:15.542Z,35.78
2022-08-26T11:35:15.534Z,35.18
2022-08-26T11:36:15.525Z,34.61
2022-08-26T11:37:15.581Z,36.65
2022-08-26T11:38:15.509Z,37.13
2022-08-26T11:39:15.496Z,37.45
2022-08-26T11:40:15.540Z,37.84
2022-08-26T11:41:15.485Z,38.41
2022-08-26T11:42:15.472Z,37.04
2022-08-26T11:43:15.464Z,36.45
2022-08-26T11:44:15.457Z,37.25
2022-08-26T11:45:15.448Z,37.67
2022-08-26T11:46:15.517Z,37.25
2022-08-26T11:47:15.427Z,37.86
2022-08-26T11:48:15.420Z,38.66
2022-08-26T11:49:15.411Z,38.04
2022-08-26T11:50:15.403Z,37.65
2022-08-26T11:51:15.392Z,38.00
2022-08-26T11:52:15.396Z,36.71
2022-08-26T11:53:15.377Z,37.04
2022-08-26T11:54:15.970Z,38.06
2022-08-26T11:55:15.361Z,36.82
2022-08-26T11:56:15.351Z,36.71
2022-08-26T11:57:15.342Z,36.05
2022-08-26T11:58:15.336Z,34.33
2022-08-26T11:59:15.323Z,32.44
2022-08-26T12:00:19.129Z,32.14
2022-08-26T12:01:16.333Z,31.77
2022-08-26T12:02:15.310Z,32.37
2022-08-26T12:03:29.765Z,33.23
2022-08-26T12:04:15.397Z,33.85
2022-08-26T12:05:15.274Z,33.67
2022-08-26T12:08:44.949Z,33.88
2022-08-26T12:08:46.360Z,32.34
2022-08-26T12:09:46.351Z,31.25
2022-08-26T12:10:46.346Z,33.06
2022-08-26T12:12:36.014Z,32.16
2022-08-26T12:12:46.328Z,31.01
2022-08-26T12:13:46.320Z,29.71
2022-08-26T12:14:46.314Z,29.29
2022-08-26T12:15:46.305Z,29.19
2022-08-26T12:16:46.359Z,28.50
2022-08-26T12:18:41.430Z,29.16
2022-08-26T12:18:46.409Z,29.40
2022-08-26T12:19:46.397Z,33.00
2022-08-26T12:20:46.390Z,33.03
2022-08-26T12:21:46.382Z,34.24
2022-08-26T12:22:48.203Z,34.35
2022-08-26T12:23:46.782Z,34.57
2022-08-26T12:24:46.361Z,33.96
2022-08-26T12:25:46.350Z,33.26
2022-08-26T12:26:46.341Z,33.85
2022-08-26T12:27:48.676Z,33.62
2022-08-26T12:28:47.347Z,33.92
2022-08-26T12:29:48.460Z,33.29
2022-08-26T12:30:46.314Z,32.68
2022-08-26T12:31:46.389Z,33.21
2022-08-26T12:32:56.548Z,34.21
2022-08-26T12:33:47.308Z,33.80
2022-08-26T12:34:46.281Z,33.41
2022-08-26T12:36:54.033Z,34.49
2022-08-26T12:36:55.583Z,33.58
2022-08-26T12:37:55.504Z,33.20
2022-08-26T12:38:58.242Z,33.94
2022-08-26T12:39:55.519Z,35.04
2022-08-26T12:40:55.480Z,35.35
2022-08-26T12:41:55.473Z,35.41
2022-08-26T12:42:55.463Z,34.72
2022-08-26T12:43:55.456Z,35.23
2022-08-26T12:44:55.447Z,35.23
2022-08-26T12:45:55.536Z,36.66
2022-08-26T12:46:55.429Z,38.01
2022-08-26T12:47:55.425Z,38.70
2022-08-26T12:48:55.419Z,38.07
2022-08-26T12:49:55.409Z,37.15
2022-08-26T12:50:55.400Z,36.53
2022-08-26T12:51:55.391Z,36.53
2022-08-26T12:52:55.384Z,35.99
2022-08-26T12:53:55.381Z,35.60
2022-08-26T12:54:56.982Z,35.70
2022-08-26T12:55:55.359Z,35.49
2022-08-26T12:56:55.351Z,35.51
2022-08-26T12:57:55.338Z,36.71
2022-08-26T12:58:55.436Z,38.04
2022-08-26T13:06:36.753Z,38.31
2022-08-26T13:06:38.151Z,39.47
2022-08-26T13:23:40.604Z,37.94
2022-08-26T13:23:43.617Z,35.63
2022-08-26T13:24:42.586Z,36.66
2022-08-26T13:25:42.579Z,37.75
2022-08-26T13:26:42.573Z,37.76
2022-08-26T13:27:42.565Z,37.82
2022-08-26T13:28:42.555Z,36.72
2022-08-26T13:29:42.550Z,36.82
2022-08-26T13:30:42.538Z,36.10
2022-08-26T13:37:02.446Z,35.69
2022-08-26T13:37:03.846Z,35.25
2022-08-26T13:38:03.845Z,34.96
2022-08-26T13:39:03.830Z,35.58
2022-08-26T13:40:03.894Z,37.15
2022-08-26T13:41:03.814Z,39.48
2022-08-26T13:42:03.808Z,39.99
2022-08-26T13:43:03.797Z,40.62
2022-08-26T13:44:03.793Z,41.54
2022-08-26T13:45:03.784Z,42.64
2022-08-26T13:53:47.626Z,43.03
2022-08-26T13:53:49.027Z,38.61
2022-08-26T13:54:49.019Z,37.59
2022-08-26T13:55:49.008Z,36.37
2022-08-26T13:56:49.001Z,36.18
2022-08-26T14:12:57.333Z,36.41
2022-08-26T14:12:58.703Z,37.32
2022-08-26T14:13:58.693Z,37.13
2022-08-26T14:15:54.197Z,38.06
2022-08-26T14:15:58.803Z,38.25
2022-08-26T14:21:23.660Z,37.86
2022-08-26T14:21:25.070Z,36.00
2022-08-26T14:22:25.061Z,34.79
2022-08-26T14:23:25.227Z,34.28
2022-08-26T14:24:25.047Z,34.33
2022-08-26T14:35:56.035Z,35.52
2022-08-26T14:35:57.439Z,33.70
2022-08-26T14:36:57.759Z,33.19
2022-08-26T14:37:58.541Z,33.31
2022-08-26T14:38:57.410Z,34.05
2022-08-26T14:39:57.453Z,34.74
2022-08-26T14:40:57.396Z,36.04
2022-08-26T14:41:57.388Z,35.22
2022-08-26T14:42:58.881Z,34.44
2022-08-26T14:43:57.370Z,34.38
2022-08-26T14:44:57.364Z,35.21
2022-08-26T14:45:57.355Z,35.19
2022-08-26T14:46:57.432Z,35.08
2022-08-26T14:47:57.341Z,35.00
2022-08-26T14:48:57.335Z,34.82
2022-08-26T14:49:57.323Z,34.92
2022-08-26T14:50:57.316Z,35.15
2022-08-26T14:51:57.308Z,36.24
2022-08-26T14:52:57.296Z,37.55
2022-08-26T14:53:57.291Z,37.07
2022-08-26T14:54:57.286Z,38.35
2022-08-26T14:55:57.280Z,37.88
2022-08-26T14:56:57.269Z,37.19
2022-08-26T14:57:57.257Z,38.68
2022-08-26T14:58:57.252Z,38.39
2022-08-26T14:59:57.242Z,38.91
2022-08-26T15:00:57.234Z,39.91
2022-08-26T15:01:57.389Z,38.52
2022-08-26T15:02:57.393Z,38.34
2022-08-26T15:03:57.208Z,38.56
2022-08-26T15:04:57.197Z,38.85
2022-08-26T15:05:57.191Z,38.58
2022-08-26T15:06:57.181Z,39.09
2022-08-26T15:07:57.172Z,39.89
2022-08-26T15:08:57.162Z,39.40
2022-08-26T15:09:57.155Z,39.40
2022-08-26T15:10:57.142Z,39.19
2022-08-26T15:11:57.137Z,39.59
2022-08-26T15:12:57.124Z,39.11
2022-08-26T15:13:57.121Z,38.72
2022-08-26T15:14:57.112Z,39.30
2022-08-26T15:15:57.147Z,39.01
2022-08-26T15:16:57.093Z,39.20
2022-08-26T15:17:57.082Z,39.52
2022-08-26T15:18:57.069Z,39.93
2022-08-26T15:19:57.063Z,39.93
2022-08-26T15:20:57.052Z,40.15
2022-08-26T15:21:57.044Z,40.15
2022-08-26T15:22:58.233Z,40.35
2022-08-26T15:23:57.024Z,40.46
2022-08-26T15:24:57.014Z,40.56
2022-08-26T15:25:57.007Z,40.75
2022-08-26T15:26:56.995Z,40.86
2022-08-26T15:27:56.989Z,40.54
2022-08-26T15:28:56.979Z,40.17
2022-08-26T15:29:56.967Z,40.25
2022-08-26T15:30:57.029Z,40.35
2022-08-26T15:31:57.469Z,40.86
2022-08-26T15:32:56.939Z,40.36
2022-08-26T15:33:56.929Z,40.68
2022-08-26T15:34:56.921Z,40.58
2022-08-26T15:35:56.909Z,40.28
2022-08-26T15:36:56.900Z,39.89
2022-08-26T15:37:56.897Z,40.42
2022-08-26T15:38:56.881Z,40.70
2022-08-26T15:39:56.921Z,41.58
2022-08-26T15:40:58.728Z,41.88
2022-08-26T15:41:56.848Z,42.37
2022-08-26T15:43:11.292Z,42.69
2022-08-26T15:43:57.851Z,42.59
2022-08-26T15:44:56.826Z,42.99
2022-08-26T15:45:56.812Z,42.77
2022-08-26T15:46:58.862Z,42.57
2022-08-26T15:48:01.491Z,42.69
2022-08-26T15:48:57.806Z,42.40
2022-08-26T15:49:56.771Z,42.40
2022-08-26T15:50:56.761Z,42.49
2022-08-26T15:51:56.753Z,42.49
2022-08-26T15:52:56.747Z,42.37
2022-08-26T15:53:56.784Z,42.40
2022-08-26T15:54:56.749Z,42.49
2022-08-26T15:55:56.715Z,43.01
2022-08-26T15:56:56.709Z,43.10
2022-08-26T15:57:56.696Z,42.49
2022-08-26T15:58:56.685Z,42.30
2022-08-26T15:59:56.680Z,42.40
2022-08-26T16:00:56.678Z,42.10
2022-08-26T16:01:56.708Z,42.40
2022-08-26T16:02:56.648Z,42.51
2022-08-26T16:03:56.644Z,43.10
2022-08-26T16:04:56.632Z,43.31
2022-08-26T16:05:56.696Z,43.23
2022-08-26T16:06:56.609Z,43.82
2022-08-26T16:07:56.599Z,43.23
2022-08-26T16:08:56.589Z,43.72
2022-08-26T16:09:56.579Z,42.93
2022-08-26T16:10:56.568Z,43.05
2022-08-26T16:11:56.556Z,43.52
2022-08-26T16:12:56.546Z,43.15
2022-08-26T16:13:56.540Z,43.32
2022-08-26T16:14:56.530Z,43.13
2022-08-26T16:15:56.588Z,43.15
2022-08-26T16:16:56.510Z,42.93
2022-08-26T16:17:56.498Z,43.13
2022-08-26T16:18:56.487Z,43.34
2022-08-26T16:19:56.481Z,43.24
2022-08-26T16:21:12.558Z,43.54
2022-08-26T16:21:57.481Z,43.74
2022-08-26T16:22:56.448Z,43.84
2022-08-26T16:23:56.437Z,44.06
2022-08-26T16:24:56.430Z,44.04
2022-08-26T16:25:56.416Z,44.14
2022-08-26T16:26:56.410Z,44.26
2022-08-26T16:27:56.399Z,44.45
2022-08-26T16:28:56.390Z,44.06
2022-08-26T16:29:56.382Z,44.45
2022-08-26T16:30:56.384Z,44.26
2022-08-26T16:31:56.358Z,44.36
2022-08-26T16:32:56.351Z,44.26
2022-08-26T16:33:56.337Z,44.26
2022-08-26T16:34:57.060Z,44.15
2022-08-26T16:35:56.322Z,44.26
2022-08-26T16:36:56.310Z,44.06
2022-08-26T16:37:56.302Z,44.06
2022-08-26T16:38:56.473Z,44.26
2022-08-26T16:39:56.367Z,44.26
2022-08-26T16:40:56.271Z,44.15
2022-08-26T16:41:56.259Z,44.95
2022-08-26T16:42:56.250Z,44.37
2022-08-26T16:43:56.240Z,44.28
2022-08-26T16:44:56.233Z,44.67
2022-08-26T16:45:56.315Z,44.55
2022-08-26T16:46:58.818Z,44.87
2022-08-26T16:47:56.201Z,44.75
2022-08-26T16:48:56.189Z,44.97
2022-08-26T16:49:56.179Z,44.87
2022-08-26T16:50:56.170Z,44.47
2022-08-26T16:51:56.161Z,44.77
2022-08-26T16:52:56.150Z,44.87
2022-08-26T16:53:56.157Z,44.55
2022-08-26T16:54:56.127Z,45.17
2022-08-26T16:55:56.121Z,45.56
2022-08-26T16:56:56.113Z,45.58
2022-08-26T16:57:56.111Z,46.30
2022-08-26T16:58:56.092Z,47.98
2022-08-26T16:59:56.081Z,48.57
2022-08-26T17:00:56.072Z,48.67
2022-08-26T17:01:56.121Z,48.87
2022-08-26T17:02:56.118Z,48.90
2022-08-26T17:03:56.040Z,48.69
2022-08-26T17:04:56.029Z,48.79
2022-08-26T17:05:56.018Z,48.50
2022-08-26T17:06:56.006Z,47.21
2022-08-26T17:07:55.998Z,47.24
2022-08-26T17:08:55.986Z,47.83
2022-08-26T17:09:55.975Z,48.02
2022-08-26T17:10:55.971Z,46.64
2022-08-26T17:11:55.957Z,47.11
2022-08-26T17:12:55.948Z,47.21
2022-08-26T17:13:55.940Z,47.31
2022-08-26T17:14:55.927Z,47.31
2022-08-26T17:15:58.335Z,47.53
2022-08-26T17:16:55.904Z,47.90
2022-08-26T17:17:55.895Z,47.83
2022-08-26T17:18:55.883Z,47.83
2022-08-26T17:19:55.874Z,48.32
2022-08-26T17:20:55.862Z,48.54
2022-08-26T17:21:55.856Z,48.84
2022-08-26T17:22:55.845Z,49.46
2022-08-26T17:23:55.832Z,49.56
2022-08-26T17:24:55.822Z,49.78
2022-08-26T17:25:55.816Z,50.08
2022-08-26T17:26:55.841Z,50.40
2022-08-26T17:28:55.791Z,50.48
2022-08-26T17:29:55.774Z,50.48
2022-08-26T17:30:55.808Z,50.48
2022-08-26T17:31:55.758Z,50.38
2022-08-26T17:32:55.745Z,50.40
2022-08-26T17:33:55.734Z,50.57
2022-08-26T17:34:55.725Z,50.97
2022-08-26T17:35:55.726Z,51.20
2022-08-26T17:36:55.704Z,51.57
2022-08-26T17:37:55.693Z,51.49
2022-08-26T17:38:55.686Z,51.69
2022-08-26T17:39:55.717Z,52.09
2022-08-26T17:40:55.665Z,51.99
2022-08-26T17:41:55.656Z,52.31
2022-08-26T17:42:55.641Z,52.51
2022-08-26T17:43:55.631Z,52.61
2022-08-26T17:44:55.622Z,52.51
2022-08-26T17:45:55.629Z,52.41
2022-08-26T17:46:55.646Z,52.51
2022-08-26T17:47:55.594Z,52.74
2022-08-26T17:48:55.585Z,52.74
2022-08-26T17:49:55.573Z,52.76
2022-08-26T17:50:55.562Z,53.03
2022-08-26T17:51:55.554Z,53.13
2022-08-26T17:52:55.542Z,53.23
2022-08-26T17:53:55.531Z,53.23
2022-08-26T17:54:55.522Z,53.46
2022-08-26T17:55:55.511Z,53.25
2022-08-26T17:56:55.499Z,53.36